Time;durP1;ratioP1;P1;durP2;ratioP2;P2;SDS_P1;SDS_P2;PMS_P1;PMS_P2;Temp;Humidity;BMP_temperature;BMP_pressure;BME280_temperature;BME280_humidity;BME280_pressure;Samples;Min_cycle;Max_cycle;Signal;HPM_P1;HPM_P2
2023/03/20 00:02:32;;;;;;;6.90;3.70;;;9.50;81.60;;;;;;5009989;28;20057;-62
2023/03/20 00:05:17;;;;;;;7.30;4.30;;;9.40;81.70;;;;;;5013877;28;20456;-61
2023/03/20 00:07:52;;;;;;;8.13;3.60;;;9.40;81.70;;;;;;5027376;28;20103;-60
2023/03/20 00:10:30;;;;;;;6.47;4.15;;;9.40;81.80;;;;;;5029908;28;20084;-61
2023/03/20 00:13:04;;;;;;;7.18;4.10;;;9.40;81.70;;;;;;5011936;28;20910;-70
2023/03/20 00:15:39;;;;;;;7.80;3.67;;;9.30;81.80;;;;;;5010582;28;20454;-72
2023/03/20 00:18:18;;;;;;;7.32;3.50;;;9.30;82.00;;;;;;5013139;28;20488;-70
2023/03/20 00:20:53;;;;;;;6.88;3.55;;;9.20;82.10;;;;;;5011499;28;20059;-71
2023/03/20 00:23:27;;;;;;;6.32;3.40;;;9.20;82.20;;;;;;5012846;28;20447;-74
2023/03/20 00:26:00;;;;;;;5.07;3.45;;;9.20;82.10;;;;;;5008855;28;20511;-72
2023/03/20 00:28:37;;;;;;;6.97;3.67;;;9.20;82.10;;;;;;5008166;28;20069;-69
2023/03/20 00:31:20;;;;;;;7.35;3.20;;;9.20;82.10;;;;;;4987195;28;20496;-70
2023/03/20 00:33:56;;;;;;;7.32;3.53;;;9.20;82.10;;;;;;5032820;28;20057;-70
2023/03/20 00:36:29;;;;;;;8.43;3.88;;;9.30;82.10;;;;;;5028841;28;20060;-60
2023/03/20 00:39:04;;;;;;;6.30;3.60;;;9.30;82.00;;;;;;5027818;28;20041;-60
2023/03/20 00:41:43;;;;;;;5.40;3.47;;;9.20;82.00;;;;;;5000105;28;20052;-61
2023/03/20 00:44:22;;;;;;;8.68;3.95;;;9.20;82.00;;;;;;5028097;28;20128;-61
2023/03/20 00:46:58;;;;;;;7.10;3.58;;;9.20;82.00;;;;;;5015356;28;20535;-60
2023/03/20 00:49:37;;;;;;;6.60;3.85;;;9.20;82.00;;;;;;5017789;28;20049;-62
2023/03/20 00:52:11;;;;;;;7.88;4.07;;;9.20;82.10;;;;;;5028514;28;20053;-70
2023/03/20 00:54:45;;;;;;;6.10;3.83;;;9.20;82.10;;;;;;5008746;28;20056;-70
2023/03/20 00:57:22;;;;;;;8.15;4.10;;;9.20;82.10;;;;;;5029937;28;20048;-62
2023/03/20 01:00:00;;;;;;;6.88;3.63;;;9.20;82.30;;;;;;5010379;28;20065;-61
2023/03/20 01:02:33;;;;;;;6.13;3.90;;;9.20;82.30;;;;;;5005887;28;20053;-60
2023/03/20 01:05:09;;;;;;;9.20;3.78;;;9.20;82.20;;;;;;5010453;28;20041;-60
2023/03/20 01:07:43;;;;;;;6.30;3.78;;;9.20;82.20;;;;;;5032762;28;20045;-63
2023/03/20 01:10:17;;;;;;;8.20;3.97;;;9.20;82.30;;;;;;5004014;28;20333;-61
2023/03/20 01:12:51;;;;;;;9.52;4.63;;;9.20;82.30;;;;;;5027729;28;20048;-62
2023/03/20 01:15:30;;;;;;;6.63;4.15;;;9.20;82.30;;;;;;5008635;28;20065;-63
2023/03/20 01:18:04;;;;;;;6.80;3.92;;;9.20;82.40;;;;;;5010620;28;20368;-70
2023/03/20 01:20:40;;;;;;;8.05;4.30;;;9.20;82.50;;;;;;4993222;28;20045;-70
2023/03/20 01:23:14;;;;;;;7.43;3.67;;;9.20;82.60;;;;;;5005522;28;20467;-62
2023/03/20 01:25:47;;;;;;;8.07;3.83;;;9.20;82.60;;;;;;5031618;28;20128;-60
2023/03/20 01:28:22;;;;;;;8.30;4.32;;;9.20;82.60;;;;;;5027806;28;20053;-61
2023/03/20 01:30:55;;;;;;;6.65;3.67;;;9.10;82.80;;;;;;5013852;28;20551;-61
2023/03/20 01:33:30;;;;;;;8.80;3.90;;;9.10;83.00;;;;;;5011600;28;20040;-66
2023/03/20 01:36:05;;;;;;;6.75;4.10;;;9.10;82.90;;;;;;5014963;28;20053;-64
2023/03/20 01:38:40;;;;;;;9.45;4.38;;;9.10;82.90;;;;;;5013922;28;20049;-66
2023/03/20 01:41:17;;;;;;;7.18;3.83;;;9.10;82.80;;;;;;5015840;28;20041;-67
2023/03/20 01:43:50;;;;;;;7.65;4.60;;;9.00;82.80;;;;;;5010301;28;20050;-66
2023/03/20 01:46:28;;;;;;;9.07;4.85;;;9.10;82.80;;;;;;5024076;28;20087;-61
2023/03/20 01:49:45;;;;;;;8.98;4.45;;;9.00;82.80;;;;;;5010772;28;20409;-63
2023/03/20 01:52:27;;;;;;;11.07;4.15;;;9.00;82.90;;;;;;5015430;28;20867;-61
2023/03/20 01:55:02;;;;;;;8.07;4.45;;;9.00;82.90;;;;;;5007311;28;20053;-60
2023/03/20 01:57:38;;;;;;;7.38;4.30;;;9.00;82.90;;;;;;4989299;28;20104;-62
2023/03/20 02:00:15;;;;;;;8.32;4.22;;;9.10;82.80;;;;;;4994283;28;20050;-62
2023/03/20 02:02:49;;;;;;;8.15;4.43;;;9.00;82.90;;;;;;4995122;28;20132;-71
2023/03/20 02:05:42;;;;;;;8.10;4.28;;;9.10;82.90;;;;;;5011140;28;20165;-71
2023/03/20 02:08:25;;;;;;;6.63;3.53;;;9.10;82.80;;;;;;5017382;28;20554;-65
2023/03/20 02:11:04;;;;;;;5.97;3.75;;;9.10;82.80;;;;;;5010067;28;20139;-64
2023/03/20 02:13:37;;;;;;;10.32;4.70;;;9.10;82.80;;;;;;5031176;28;20676;-60
2023/03/20 02:16:14;;;;;;;7.45;4.50;;;9.10;82.80;;;;;;5018745;28;20529;-63
2023/03/20 02:19:07;;;;;;;7.63;4.18;;;9.10;82.80;;;;;;5001469;28;20951;-60
2023/03/20 02:22:15;;;;;;;6.60;3.97;;;9.10;82.90;;;;;;5010954;28;20050;-62
2023/03/20 02:25:25;;;;;;;7.18;3.90;;;9.10;82.90;;;;;;5006424;28;20115;-62
2023/03/20 02:28:32;;;;;;;6.88;4.18;;;9.10;83.00;;;;;;5014251;28;20053;-61
2023/03/20 02:31:36;;;;;;;7.03;3.92;;;9.10;83.00;;;;;;5030185;28;20467;-60
2023/03/20 02:34:32;;;;;;;6.20;3.53;;;9.00;83.20;;;;;;4995098;28;20046;-61
2023/03/20 02:37:42;;;;;;;7.93;4.30;;;9.10;83.20;;;;;;5012672;28;20049;-70
2023/03/20 02:40:25;;;;;;;7.18;4.15;;;9.10;83.10;;;;;;5011523;28;20050;-71
2023/03/20 02:43:08;;;;;;;7.35;4.18;;;9.00;83.20;;;;;;5008654;28;20052;-63
2023/03/20 02:45:53;;;;;;;9.18;4.35;;;9.10;83.30;;;;;;5009940;28;20049;-61
2023/03/20 02:48:39;;;;;;;8.55;4.55;;;9.10;82.90;;;;;;5010418;28;20052;-66
2023/03/20 02:51:24;;;;;;;7.93;4.40;;;9.10;83.00;;;;;;4992749;28;20505;-68
2023/03/20 02:54:05;;;;;;;9.18;4.10;;;9.10;83.00;;;;;;4990683;28;20045;-61
2023/03/20 02:56:50;;;;;;;7.53;4.22;;;9.10;83.00;;;;;;4997625;28;20077;-61
2023/03/20 02:59:30;;;;;;;8.32;4.32;;;9.20;83.00;;;;;;4988148;28;20409;-61
2023/03/20 03:02:08;;;;;;;10.10;4.47;;;9.10;83.00;;;;;;5013118;28;20046;-60
2023/03/20 03:04:48;;;;;;;10.68;4.45;;;9.10;83.10;;;;;;5009989;28;20046;-61
2023/03/20 03:07:27;;;;;;;8.68;4.22;;;9.10;83.10;;;;;;5016816;28;20611;-61
2023/03/20 03:10:05;;;;;;;8.38;4.80;;;9.10;83.20;;;;;;4994595;28;20563;-60
2023/03/20 03:12:43;;;;;;;8.85;4.78;;;9.10;83.20;;;;;;4993383;28;20050;-62
2023/03/20 03:15:20;;;;;;;7.72;4.90;;;9.10;83.20;;;;;;4996731;28;20061;-62
2023/03/20 03:17:57;;;;;;;7.80;4.45;;;9.10;83.10;;;;;;4982392;28;20041;-66
2023/03/20 03:20:32;;;;;;;11.52;5.00;;;9.10;83.20;;;;;;4984119;28;20128;-66
2023/03/20 03:23:06;;;;;;;7.13;4.07;;;9.10;83.30;;;;;;4990432;28;20450;-66
2023/03/20 03:25:42;;;;;;;8.10;4.65;;;9.10;83.40;;;;;;4987785;28;20045;-67
2023/03/20 03:28:27;;;;;;;7.57;4.32;;;9.10;83.40;;;;;;4995815;28;20750;-67
2023/03/20 03:31:02;;;;;;;7.43;4.28;;;9.00;83.40;;;;;;4994025;28;20084;-65
2023/03/20 03:33:39;;;;;;;10.45;4.20;;;9.10;83.40;;;;;;4987046;28;20045;-65
2023/03/20 03:36:19;;;;;;;6.93;4.50;;;9.10;83.40;;;;;;4989795;28;20121;-67
2023/03/20 03:38:58;;;;;;;8.80;4.05;;;9.10;83.40;;;;;;4996125;28;20042;-67
2023/03/20 03:41:38;;;;;;;9.07;4.07;;;9.10;83.40;;;;;;5013903;28;20057;-65
2023/03/20 03:44:17;;;;;;;7.40;4.03;;;9.10;83.30;;;;;;5009496;28;20046;-66
2023/03/20 03:46:54;;;;;;;7.72;4.03;;;9.10;83.50;;;;;;4995593;28;20057;-64
2023/03/20 03:49:31;;;;;;;7.97;4.75;;;9.10;83.70;;;;;;4997998;28;20044;-65
2023/03/20 03:52:10;;;;;;;7.85;3.95;;;9.10;83.90;;;;;;5007571;28;20257;-67
2023/03/20 03:54:47;;;;;;;8.77;4.00;;;9.10;83.90;;;;;;5007428;28;20056;-65
2023/03/20 03:57:35;;;;;;;7.32;3.88;;;9.10;84.00;;;;;;5033311;28;20096;-61
2023/03/20 04:00:17;;;;;;;7.68;3.83;;;9.20;83.80;;;;;;5004742;28;20037;-61
2023/03/20 04:02:54;;;;;;;7.57;4.05;;;9.20;83.70;;;;;;5032681;28;20053;-66
2023/03/20 04:05:32;;;;;;;7.30;4.00;;;9.20;83.70;;;;;;5014754;28;20052;-67
2023/03/20 04:08:07;;;;;;;6.85;4.15;;;9.10;83.70;;;;;;5013760;28;20118;-64
2023/03/20 04:10:47;;;;;;;6.43;3.95;;;9.10;83.80;;;;;;5011953;28;20045;-66
2023/03/20 04:13:21;;;;;;;7.97;4.03;;;9.10;83.80;;;;;;5014287;28;20056;-62
2023/03/20 04:15:56;;;;;;;9.07;4.10;;;9.10;83.70;;;;;;5029631;28;20137;-61
2023/03/20 04:18:30;;;;;;;7.30;4.05;;;9.10;83.80;;;;;;5005885;28;20046;-60
2023/03/20 04:21:03;;;;;;;7.22;4.30;;;9.10;83.80;;;;;;5031531;28;20590;-61
2023/03/20 04:23:38;;;;;;;7.55;4.07;;;9.10;83.70;;;;;;5019410;28;20051;-64
2023/03/20 04:26:11;;;;;;;8.25;4.50;;;9.10;83.60;;;;;;5014347;28;20088;-65
2023/03/20 04:28:40;;;;;;;7.47;4.60;;;9.20;83.70;;;;;;5014523;28;20124;-60
2023/03/20 04:31:38;;;;;;;8.15;3.95;;;9.10;83.90;;;;;;5027970;28;20048;-66
2023/03/20 04:34:23;;;;;;;8.60;4.03;;;9.10;84.10;;;;;;5033615;28;20069;-66
2023/03/20 04:37:08;;;;;;;8.60;3.63;;;9.20;84.10;;;;;;5012715;28;20045;-70
2023/03/20 04:40:05;;;;;;;9.35;3.90;;;9.20;84.30;;;;;;5015751;28;20069;-72
2023/03/20 04:42:41;;;;;;;6.63;3.70;;;9.20;84.40;;;;;;5013304;28;20115;-64
2023/03/20 04:45:17;;;;;;;6.28;3.25;;;9.20;84.60;;;;;;5030008;28;20499;-65
2023/03/20 04:47:50;;;;;;;7.35;3.67;;;9.20;84.40;;;;;;5013721;28;20056;-65
2023/03/20 04:50:30;;;;;;;6.97;3.88;;;9.20;84.70;;;;;;5015955;28;20119;-65
2023/03/20 04:53:04;;;;;;;;;;;9.30;84.50;;;;;;5021059;28;20054;-66
2023/03/20 04:55:37;;;;;;;6.43;3.30;;;9.30;84.30;;;;;;5011523;28;21181;-66
2023/03/20 04:58:11;;;;;;;7.43;3.88;;;9.30;84.40;;;;;;5030460;28;20277;-60
2023/03/20 05:00:46;;;;;;;6.65;3.63;;;9.30;84.80;;;;;;5014829;28;20383;-61
2023/03/20 05:03:19;;;;;;;6.88;3.75;;;9.30;84.90;;;;;;5010120;28;20136;-70
2023/03/20 05:05:52;;;;;;;6.00;3.50;;;9.30;85.10;;;;;;5008467;28;20126;-69
2023/03/20 05:08:27;;;;;;;6.85;3.90;;;9.30;85.00;;;;;;5016352;28;20049;-66
2023/03/20 05:11:01;;;;;;;7.45;4.18;;;9.40;84.80;;;;;;5004525;28;20049;-65
2023/03/20 05:13:58;;;;;;;7.13;4.07;;;9.40;84.40;;;;;;5012583;28;20049;-69
2023/03/20 05:16:50;;;;;;;8.07;4.25;;;9.40;84.60;;;;;;5011336;28;20143;-60
2023/03/20 05:19:56;;;;;;;8.02;3.90;;;9.40;84.60;;;;;;4969196;28;20057;-61
2023/03/20 05:22:40;;;;;;;8.50;4.13;;;9.40;84.70;;;;;;5004903;28;20054;-64
2023/03/20 05:25:36;;;;;;;6.45;3.65;;;9.40;84.50;;;;;;5002798;28;20046;-64
2023/03/20 05:28:45;;;;;;;5.85;3.42;;;9.50;84.60;;;;;;4937971;28;20113;-65
2023/03/20 05:31:31;;;;;;;8.15;4.70;;;9.50;84.40;;;;;;5005415;28;20496;-71
2023/03/20 05:34:15;;;;;;;6.95;4.07;;;9.50;84.70;;;;;;5016857;28;20535;-71
2023/03/20 05:37:00;;;;;;;8.43;4.78;;;9.50;85.00;;;;;;4996372;28;20069;-61
2023/03/20 05:39:57;;;;;;;8.70;5.07;;;9.50;85.20;;;;;;4984603;28;20061;-60
2023/03/20 05:42:39;;;;;;;8.07;5.50;;;9.50;84.80;;;;;;5026827;28;20065;-63
2023/03/20 05:45:27;;;;;;;7.82;4.82;;;9.50;85.20;;;;;;5030042;28;20053;-64
2023/03/20 05:48:36;;;;;;;8.45;4.93;;;9.50;85.00;;;;;;5022927;28;20048;-70
2023/03/20 05:51:38;;;;;;;9.30;5.30;;;9.50;85.40;;;;;;5014929;28;20049;-62
2023/03/20 05:54:32;;;;;;;9.02;5.50;;;9.60;84.80;;;;;;5003781;28;20067;-61
2023/03/20 05:57:23;;;;;;;10.00;5.50;;;9.50;84.90;;;;;;4994454;28;20049;-59
2023/03/20 06:00:25;;;;;;;9.13;5.25;;;9.60;84.50;;;;;;4998654;28;20057;-60
2023/03/20 06:03:17;;;;;;;7.25;4.90;;;9.60;85.70;;;;;;4991764;28;20158;-61
2023/03/20 06:06:01;;;;;;;9.73;6.10;;;9.60;85.00;;;;;;4995279;28;20050;-60
2023/03/20 06:08:36;;;;;;;10.48;6.05;;;9.70;85.60;;;;;;4986232;28;20053;-64
2023/03/20 06:11:10;;;;;;;10.63;5.85;;;9.70;85.50;;;;;;4995052;28;20129;-66
2023/03/20 06:13:44;;;;;;;9.10;5.78;;;9.70;85.30;;;;;;4988596;28;20050;-65
2023/03/20 06:16:17;;;;;;;12.18;6.60;;;9.70;84.80;;;;;;4995010;28;20042;-64
2023/03/20 06:18:44;;;;;;;11.63;7.38;;;9.70;84.80;;;;;;5015341;28;20469;-65
2023/03/20 06:21:18;;;;;;;12.15;7.43;;;9.70;85.20;;;;;;4997819;28;20049;-66
2023/03/20 06:23:54;;;;;;;10.85;6.93;;;9.70;85.20;;;;;;4988413;28;20443;-66
2023/03/20 06:26:28;;;;;;;11.07;6.88;;;9.70;85.30;;;;;;4995228;28;20071;-65
2023/03/20 06:29:05;;;;;;;12.25;7.35;;;9.70;85.10;;;;;;4997260;28;20129;-66
2023/03/20 06:31:39;;;;;;;11.02;7.28;;;9.70;85.00;;;;;;4989490;28;20408;-71
2023/03/20 06:34:22;;;;;;;12.57;7.05;;;9.70;85.20;;;;;;4991954;28;20062;-70
2023/03/20 06:36:57;;;;;;;14.95;7.10;;;9.70;85.40;;;;;;4982292;28;20058;-60
2023/03/20 06:39:32;;;;;;;13.23;7.38;;;9.80;85.10;;;;;;4998197;28;20050;-60
2023/03/20 06:42:11;;;;;;;12.45;7.53;;;9.80;85.50;;;;;;4992395;28;20362;-64
2023/03/20 06:44:47;;;;;;;14.70;7.95;;;9.80;85.40;;;;;;4989425;28;20059;-64
2023/03/20 06:47:38;;;;;;;13.00;7.40;;;9.90;85.10;;;;;;4995861;28;20092;-59
2023/03/20 06:50:26;;;;;;;12.30;7.85;;;9.80;85.30;;;;;;5001325;28;20069;-60
2023/03/20 06:52:59;;;;;;;12.05;7.95;;;9.90;85.40;;;;;;5024199;28;20161;-60
2023/03/20 06:55:53;;;;;;;11.05;6.93;;;9.90;85.20;;;;;;5008692;28;20061;-61
2023/03/20 06:58:27;;;;;;;13.70;7.93;;;9.90;85.50;;;;;;5018797;28;20132;-65
2023/03/20 07:01:00;;;;;;;12.60;7.10;;;9.90;85.30;;;;;;5032664;28;20068;-64
2023/03/20 07:03:34;;;;;;;10.57;6.78;;;10.00;85.40;;;;;;5024156;28;20052;-62
2023/03/20 07:06:10;;;;;;;11.88;7.68;;;10.00;85.20;;;;;;5031897;28;20049;-62
2023/03/20 07:08:44;;;;;;;12.30;7.45;;;10.00;85.20;;;;;;5008209;28;20464;-62
2023/03/20 07:11:19;;;;;;;13.45;7.88;;;10.00;85.30;;;;;;5015323;28;20110;-61
2023/03/20 07:13:54;;;;;;;13.55;8.48;;;10.10;85.60;;;;;;5032081;28;20064;-61
2023/03/20 07:16:44;;;;;;;;;;;10.10;85.60;;;;;;5006952;28;20072;-63
2023/03/20 07:19:19;;;;;;;12.77;7.20;;;10.10;85.50;;;;;;5015514;28;19948;-62
2023/03/20 07:21:50;;;;;;;15.13;8.32;;;10.10;85.40;;;;;;5006071;28;20052;-61
2023/03/20 07:24:23;;;;;;;13.73;8.82;;;10.10;85.40;;;;;;5005086;28;20052;-61
2023/03/20 07:26:59;;;;;;;16.25;9.13;;;10.10;85.70;;;;;;4995157;28;20115;-62
2023/03/20 07:29:35;;;;;;;15.10;9.60;;;10.00;85.40;;;;;;4995319;28;20133;-62
2023/03/20 07:32:13;;;;;;;14.40;9.43;;;10.10;85.50;;;;;;5016606;28;20053;-61
2023/03/20 07:34:50;;;;;;;14.43;9.40;;;10.10;85.30;;;;;;5009208;28;20050;-60
2023/03/20 07:37:23;;;;;;;16.08;9.65;;;10.10;85.60;;;;;;5024024;28;20046;-60
2023/03/20 07:40:01;;;;;;;14.50;8.75;;;10.20;85.60;;;;;;5019421;28;20057;-61
2023/03/20 07:43:03;;;;;;;15.50;9.52;;;10.10;85.40;;;;;;5025737;28;20053;-62
2023/03/20 07:46:09;;;;;;;15.90;9.57;;;10.20;85.30;;;;;;5008758;28;20053;-60
2023/03/20 07:48:42;;;;;;;16.95;9.20;;;10.20;85.50;;;;;;5012539;28;20042;-71
2023/03/20 07:51:23;;;;;;;14.93;9.02;;;10.20;85.70;;;;;;5020832;28;20111;-69
2023/03/20 07:53:56;;;;;;;16.95;10.00;;;10.20;85.60;;;;;;5033443;28;20045;-61
2023/03/20 07:56:30;;;;;;;16.30;9.80;;;10.20;85.40;;;;;;5029441;28;20127;-61
2023/03/20 07:59:05;;;;;;;16.35;10.13;;;10.20;85.60;;;;;;5031983;28;20050;-62
2023/03/20 08:01:38;;;;;;;16.63;10.70;;;10.20;85.20;;;;;;5024717;28;20052;-64
2023/03/20 08:04:11;;;;;;;17.40;10.98;;;10.30;85.40;;;;;;5031991;28;20044;-65
2023/03/20 08:06:44;;;;;;;18.77;11.18;;;10.30;85.20;;;;;;5010526;28;20053;-61
2023/03/20 08:09:18;;;;;;;15.55;9.52;;;10.30;85.20;;;;;;5013498;28;20050;-61
2023/03/20 08:11:51;;;;;;;19.08;10.80;;;10.20;85.20;;;;;;5012641;28;20098;-64
2023/03/20 08:14:26;;;;;;;18.02;10.73;;;10.20;85.30;;;;;;5016735;28;20060;-63
2023/03/20 08:16:59;;;;;;;17.83;11.55;;;10.30;85.50;;;;;;5012614;28;20053;-63
2023/03/20 08:19:32;;;;;;;20.88;12.75;;;10.30;85.40;;;;;;5014228;28;20068;-63
2023/03/20 08:22:05;;;;;;;19.92;11.90;;;10.20;85.70;;;;;;5031972;28;20048;-61
2023/03/20 08:24:39;;;;;;;21.17;12.57;;;10.20;85.30;;;;;;5034497;28;20106;-61
2023/03/20 08:27:12;;;;;;;19.30;12.15;;;10.20;85.40;;;;;;5034146;28;20048;-61
2023/03/20 08:29:41;;;;;;;22.23;12.52;;;10.20;85.70;;;;;;5030742;28;20045;-60
2023/03/20 08:32:14;;;;;;;23.55;13.00;;;10.20;85.40;;;;;;5034115;28;20488;-60
2023/03/20 08:34:49;;;;;;;20.67;12.52;;;10.30;85.70;;;;;;5029242;28;20033;-61
2023/03/20 08:37:23;;;;;;;20.83;12.38;;;10.30;85.40;;;;;;5029600;28;20795;-61
2023/03/20 08:39:56;;;;;;;20.23;12.18;;;10.30;85.90;;;;;;5013669;28;20081;-61
2023/03/20 08:42:29;;;;;;;20.40;13.27;;;10.30;85.40;;;;;;5008202;28;20048;-61
2023/03/20 08:45:05;;;;;;;19.02;12.05;;;10.30;85.80;;;;;;5009234;28;20120;-60
2023/03/20 08:47:38;;;;;;;18.05;11.43;;;10.20;85.90;;;;;;5011060;28;20109;-70
2023/03/20 08:50:12;;;;;;;21.98;13.32;;;10.30;85.60;;;;;;5014713;28;20064;-69
2023/03/20 08:52:52;;;;;;;21.50;13.13;;;10.30;85.70;;;;;;5011366;28;20484;-60
2023/03/20 08:55:25;;;;;;;21.90;12.45;;;10.30;85.70;;;;;;5013144;28;20041;-61
2023/03/20 08:57:59;;;;;;;24.55;13.25;;;10.30;86.50;;;;;;5009109;28;20536;-69
2023/03/20 09:00:34;;;;;;;25.23;13.90;;;10.30;85.60;;;;;;5012921;28;20175;-71
2023/03/20 09:03:10;;;;;;;25.20;12.45;;;10.30;86.00;;;;;;5033399;28;20053;-70
2023/03/20 09:05:44;;;;;;;24.23;14.93;;;10.30;86.00;;;;;;5036972;28;20052;-69
2023/03/20 09:08:17;;;;;;;26.60;14.38;;;10.30;85.60;;;;;;5034159;28;20053;-62
2023/03/20 09:10:58;;;;;;;23.90;13.35;;;10.30;86.30;;;;;;5036244;28;20048;-61
2023/03/20 09:13:31;;;;;;;27.38;13.95;;;10.30;85.80;;;;;;5010755;28;20077;-63
2023/03/20 09:16:07;;;;;;;24.83;13.90;;;10.30;85.80;;;;;;5015586;28;20064;-63
2023/03/20 09:18:40;;;;;;;27.05;14.38;;;10.30;86.10;;;;;;5011858;28;20053;-62
2023/03/20 09:21:13;;;;;;;25.92;14.32;;;10.30;86.60;;;;;;5014895;28;20477;-63
2023/03/20 09:23:47;;;;;;;28.08;14.73;;;10.30;86.40;;;;;;5014608;28;20132;-62
2023/03/20 09:26:20;;;;;;;26.02;14.27;;;10.40;85.90;;;;;;5015315;28;20103;-62
2023/03/20 09:28:53;;;;;;;24.45;14.00;;;10.40;85.70;;;;;;5017061;28;20443;-62
2023/03/20 09:31:28;;;;;;;28.90;14.88;;;10.40;86.00;;;;;;5010612;28;20093;-60
2023/03/20 09:34:01;;;;;;;29.75;15.30;;;10.40;86.90;;;;;;5009671;28;20042;-61
2023/03/20 09:36:34;;;;;;;29.00;15.15;;;10.50;86.20;;;;;;5014326;28;20486;-60
2023/03/20 09:39:07;;;;;;;27.63;14.48;;;10.50;86.50;;;;;;5013779;28;20424;-60
2023/03/20 09:41:36;;;;;;;27.92;14.88;;;10.60;86.20;;;;;;5016928;28;20139;-60
2023/03/20 09:44:17;;;;;;;23.13;13.80;;;10.60;86.60;;;;;;5014195;28;20135;-61
2023/03/20 09:47:12;;;;;;;24.25;14.05;;;10.60;87.10;;;;;;5015480;28;20045;-60
2023/03/20 09:49:53;;;;;;;23.88;14.30;;;10.60;86.60;;;;;;5016478;28;20060;-61
2023/03/20 09:52:37;;;;;;;24.90;14.82;;;10.60;86.50;;;;;;5014277;28;20041;-70
2023/03/20 09:55:15;;;;;;;25.10;13.90;;;10.60;86.00;;;;;;5013800;28;20053;-69
2023/03/20 09:57:52;;;;;;;22.73;13.35;;;10.60;85.90;;;;;;5012830;28;20037;-72
2023/03/20 10:00:28;;;;;;;20.35;12.30;;;10.60;85.80;;;;;;5012673;28;20140;-70
2023/03/20 10:03:06;;;;;;;22.27;12.35;;;10.60;86.90;;;;;;5018310;28;20584;-66
2023/03/20 10:05:44;;;;;;;20.40;12.05;;;10.60;87.00;;;;;;5014904;28;20049;-65
2023/03/20 10:08:23;;;;;;;21.70;12.68;;;10.60;86.30;;;;;;5016436;28;20048;-65
2023/03/20 10:11:05;;;;;;;20.98;12.68;;;10.60;87.20;;;;;;5013334;28;20148;-63
2023/03/20 10:13:56;;;;;;;20.08;12.63;;;10.70;86.50;;;;;;5031755;28;20045;-60
2023/03/20 10:16:42;;;;;;;19.50;12.52;;;10.70;87.40;;;;;;5030303;28;20586;-60
2023/03/20 10:19:22;;;;;;;21.88;13.23;;;10.70;86.50;;;;;;5028284;28;20057;-62
2023/03/20 10:22:08;;;;;;;21.63;13.70;;;10.70;86.90;;;;;;5036919;28;20073;-61
2023/03/20 10:24:45;;;;;;;20.75;12.45;;;10.70;87.10;;;;;;5016120;28;20041;-61
2023/03/20 10:27:23;;;;;;;25.02;14.23;;;10.80;87.30;;;;;;5014671;28;20045;-69
2023/03/20 10:30:12;;;;;;;23.20;14.75;;;10.80;86.30;;;;;;5016453;28;20042;-69
2023/03/20 10:32:51;;;;;;;19.90;12.60;;;10.80;87.40;;;;;;5016055;28;20046;-60
2023/03/20 10:35:33;;;;;;;23.98;13.70;;;10.80;87.60;;;;;;5013500;28;20144;-61
2023/03/20 10:38:21;;;;;;;23.30;13.77;;;10.80;86.90;;;;;;5011349;28;20080;-61
2023/03/20 10:40:56;;;;;;;21.08;13.02;;;10.80;87.40;;;;;;5028617;28;20049;-62
2023/03/20 10:43:33;;;;;;;22.65;12.75;;;10.80;86.80;;;;;;5033219;28;20048;-61
2023/03/20 10:46:12;;;;;;;21.52;14.23;;;10.80;87.00;;;;;;5016222;28;20991;-60
2023/03/20 10:48:49;;;;;;;26.50;14.32;;;10.90;87.70;;;;;;5032391;28;20041;-61
2023/03/20 10:51:39;;;;;;;26.08;15.02;;;10.90;87.30;;;;;;5019657;28;20046;-60
2023/03/20 10:54:22;;;;;;;28.48;16.75;;;10.90;86.70;;;;;;5017185;28;20466;-65
2023/03/20 10:56:58;;;;;;;25.98;15.57;;;10.90;86.80;;;;;;5017345;28;20137;-62
2023/03/20 10:59:37;;;;;;;22.63;13.30;;;11.00;87.50;;;;;;5011570;28;23065;-63
2023/03/20 11:02:11;;;;;;;22.88;13.80;;;11.10;86.80;;;;;;5012118;28;20496;-64
2023/03/20 11:04:45;;;;;;;21.00;13.50;;;11.20;87.00;;;;;;5013000;28;20073;-65
2023/03/20 11:07:25;;;;;;;22.65;13.02;;;11.20;86.90;;;;;;5010182;28;20057;-59
2023/03/20 11:10:11;;;;;;;22.05;13.52;;;11.30;86.90;;;;;;5010374;28;20053;-60
2023/03/20 11:12:46;;;;;;;24.25;14.25;;;11.50;86.60;;;;;;5011908;28;20065;-69
2023/03/20 11:15:22;;;;;;;22.02;12.63;;;11.60;86.20;;;;;;5013482;28;20764;-69
2023/03/20 11:17:58;;;;;;;22.95;13.63;;;11.70;86.40;;;;;;5033142;28;20132;-60
2023/03/20 11:20:34;;;;;;;20.70;12.63;;;11.70;86.60;;;;;;5030065;28;20472;-60
2023/03/20 11:23:16;;;;;;;22.83;13.32;;;11.70;86.40;;;;;;5028577;28;20077;-63
2023/03/20 11:25:52;;;;;;;21.08;12.75;;;11.70;86.50;;;;;;5011875;28;20072;-66
2023/03/20 11:28:32;;;;;;;21.85;12.85;;;11.70;86.10;;;;;;5013794;28;20516;-61
2023/03/20 11:31:25;;;;;;;22.02;13.48;;;11.70;86.10;;;;;;5033083;28;20055;-61
2023/03/20 11:34:25;;;;;;;24.90;14.45;;;11.70;85.90;;;;;;5031502;28;20099;-62
2023/03/20 11:37:00;;;;;;;24.48;13.80;;;11.80;85.90;;;;;;5016227;28;20048;-70
2023/03/20 11:39:36;;;;;;;21.95;13.60;;;11.80;85.70;;;;;;5010626;28;20084;-68
2023/03/20 11:42:23;;;;;;;23.65;14.30;;;11.80;85.70;;;;;;5012153;28;20069;-64
2023/03/20 11:44:59;;;;;;;26.38;13.75;;;11.70;85.80;;;;;;5007025;28;20045;-63
2023/03/20 11:47:35;;;;;;;22.10;13.77;;;11.60;85.80;;;;;;5012249;28;20061;-68
2023/03/20 11:50:26;;;;;;;22.23;13.55;;;11.60;85.80;;;;;;5013544;28;20085;-68
2023/03/20 11:53:08;;;;;;;24.08;14.48;;;11.60;85.70;;;;;;5013405;28;20111;-64
2023/03/20 11:55:56;;;;;;;23.52;13.93;;;11.60;85.80;;;;;;5012068;28;20148;-63
2023/03/20 11:58:30;;;;;;;26.70;14.77;;;11.60;85.90;;;;;;5015250;28;20445;-63
2023/03/20 12:01:04;;;;;;;25.13;15.50;;;11.70;85.50;;;;;;5010876;28;20489;-63
2023/03/20 12:03:46;;;;;;;26.35;14.25;;;11.90;85.40;;;;;;5011399;28;20049;-61
2023/03/20 12:06:24;;;;;;;26.52;15.40;;;12.00;85.20;;;;;;5011230;28;20073;-62
2023/03/20 12:09:02;;;;;;;26.23;14.40;;;12.10;85.00;;;;;;5007526;28;20646;-61
2023/03/20 12:11:45;;;;;;;22.92;14.10;;;12.20;84.80;;;;;;5007668;28;20088;-61
2023/03/20 12:14:27;;;;;;;24.60;13.98;;;12.20;84.80;;;;;;5010051;28;20057;-61
2023/03/20 12:17:18;;;;;;;19.55;12.32;;;12.30;84.60;;;;;;5034062;28;20099;-69
2023/03/20 12:19:56;;;;;;;24.15;13.07;;;12.40;84.60;;;;;;5010055;28;20045;-68
2023/03/20 12:22:35;;;;;;;20.77;12.30;;;12.50;84.30;;;;;;5012404;28;20050;-59
2023/03/20 12:25:20;;;;;;;22.90;13.20;;;12.60;84.20;;;;;;5009289;28;20116;-59
2023/03/20 12:28:03;;;;;;;22.75;12.32;;;12.60;84.00;;;;;;5011070;28;20054;-61
2023/03/20 12:30:53;;;;;;;23.80;12.80;;;12.60;83.70;;;;;;5011766;28;20092;-60
2023/03/20 12:33:38;;;;;;;19.52;12.18;;;12.60;83.80;;;;;;5011106;28;20070;-59
2023/03/20 12:36:15;;;;;;;22.52;13.52;;;12.60;83.70;;;;;;5011997;28;20099;-60
2023/03/20 12:38:48;;;;;;;24.38;14.05;;;12.60;83.80;;;;;;5007760;28;20506;-60
2023/03/20 12:41:26;;;;;;;24.35;13.55;;;12.70;83.40;;;;;;5009096;28;20056;-60
2023/03/20 12:44:19;;;;;;;24.33;13.73;;;12.70;83.00;;;;;;4997248;28;20045;-61
2023/03/20 12:47:07;;;;;;;22.13;12.65;;;12.70;82.80;;;;;;5014209;28;20051;-60
2023/03/20 12:49:51;;;;;;;21.80;13.10;;;12.80;82.40;;;;;;5013407;28;20164;-60
2023/03/20 12:52:44;;;;;;;21.55;12.73;;;12.80;82.40;;;;;;4994218;28;20049;-63
2023/03/20 12:55:29;;;;;;;21.35;13.00;;;12.80;82.40;;;;;;4992805;28;20101;-62
2023/03/20 12:58:14;;;;;;;18.92;12.15;;;12.90;82.40;;;;;;4990229;28;20054;-62
2023/03/20 13:00:59;;;;;;;20.92;12.48;;;12.90;82.00;;;;;;4992932;28;20060;-62
2023/03/20 13:04:14;;;;;;;21.55;12.32;;;12.90;81.60;;;;;;4992050;28;20137;-61
2023/03/20 13:06:53;;;;;;;21.75;13.15;;;13.00;81.30;;;;;;5007417;28;20221;-61
2023/03/20 13:09:49;;;;;;;21.25;12.70;;;13.10;81.40;;;;;;5011240;28;20050;-61
2023/03/20 13:12:35;;;;;;;20.20;11.27;;;13.20;80.80;;;;;;5009872;28;20042;-62
2023/03/20 13:15:21;;;;;;;19.60;11.20;;;13.20;80.50;;;;;;5012362;28;20120;-62
2023/03/20 13:18:02;;;;;;;18.83;10.82;;;13.30;80.20;;;;;;5012068;28;20125;-62
2023/03/20 13:20:43;;;;;;;17.48;10.65;;;13.30;80.30;;;;;;5008304;28;20117;-61
2023/03/20 13:23:23;;;;;;;17.58;9.50;;;13.30;79.80;;;;;;5009174;28;20046;-65
2023/03/20 13:26:07;;;;;;;15.40;9.40;;;13.40;79.60;;;;;;5000127;28;20575;-62
2023/03/20 13:28:52;;;;;;;15.32;9.57;;;13.40;79.20;;;;;;5004717;28;20085;-63
2023/03/20 13:31:46;;;;;;;15.05;8.90;;;13.40;79.30;;;;;;5007261;28;20115;-63
2023/03/20 13:34:30;;;;;;;13.70;7.97;;;13.40;78.50;;;;;;4990565;28;20113;-63
2023/03/20 13:37:15;;;;;;;14.50;8.52;;;13.40;79.00;;;;;;4990707;28;20058;-63
2023/03/20 13:39:59;;;;;;;14.07;8.38;;;13.40;78.00;;;;;;4992912;28;20391;-64
2023/03/20 13:42:38;;;;;;;12.18;7.43;;;13.40;77.60;;;;;;4987918;28;20061;-64
2023/03/20 13:45:31;;;;;;;12.68;7.43;;;13.40;77.90;;;;;;4994078;28;20054;-64
2023/03/20 13:48:26;;;;;;;13.13;8.23;;;13.50;77.90;;;;;;4998833;28;20058;-63
2023/03/20 13:51:18;;;;;;;10.55;6.53;;;13.50;77.60;;;;;;5008176;28;20119;-65